• Join FlightAware (Why Join?)
  • Login
  • US Flag GB Flag 
23:55 EDT


 

Airport Tracker/Info


-or-


 

Live Flight TrackerFlight Track Log ✈ FAO852 ✈ 26-Mar-2014 ✈ KPIE - KPBG

Flight Track Log - Related Links

Times and Time Zones

All times are in EDT time to prevent confusion due to time zone crossing. See the FAO852 flight status page for this flight to view local times or setup timezone preferences in your user account.

Time Position Orientation Groundspeed Altitude Reporting Facility
EDT Latitude Longitude Course Direction KTS MPH feet Rate Location/Type
07:15 27.9333 -82.7000 24° Northeast 156 180 500  Level Tampa TRACON
07:16 27.9667 -82.6833 24° Northeast 184 212 3,100 1,740 Climbing Tampa TRACON
07:17 28.0333 -82.7000 348° North 244 281 3,900 780 Climbing Tampa TRACON
07:18 28.0833 -82.6833 16° North 255 293 4,700 1,860 Climbing Tampa TRACON
07:20 28.2269 -82.6053 26° Northeast 262 302 9,700 1,920 Climbing Jacksonville Center
07:21 28.3122 -82.5883 10° North 276 318 10,900 1,800 Climbing Jacksonville Center
07:22 28.4042 -82.5858 North 305 351 13,300 2,280 Climbing Jacksonville Center
07:23 28.5022 -82.5831 North 330 380 15,500 2,160 Climbing Jacksonville Center
07:24 28.6067 -82.5828 360° North 352 405 17,700 1,800 Climbing Jacksonville Center
07:25 28.7192 -82.5825 360° North 363 418 19,200 1,620 Climbing Jacksonville Center
07:26 28.8278 -82.5775 North 374 430 21,000 1,620 Climbing Jacksonville Center
07:27 28.9383 -82.5769 360° North 386 444 22,500 1,380 Climbing Jacksonville Center
07:28 29.0511 -82.5744 North 392 451 23,800 1,260 Climbing Jacksonville Center
07:29 29.1700 -82.5714 North 408 470 25,100 1,260 Climbing Jacksonville Center
07:30 29.2892 -82.5711 360° North 413 475 26,400 1,320 Climbing Jacksonville Center
07:31 29.4081 -82.5683 North 424 488 27,800 1,380 Climbing Jacksonville Center
07:32 29.5269 -82.5656 North 419 482 29,200 1,200 Climbing Jacksonville Center
07:33 29.6461 -82.5653 360° North 419 482 30,300 840 Climbing Jacksonville Center
07:34 29.7631 -82.5625 North 419 482 30,900 300 Climbing Jacksonville Center
07:35 29.8694 -82.5619 360° North 424 488 31,000  Climbing Jacksonville Center
07:36 29.9864 -82.5592 North 419 482 30,900  Descending Jacksonville Center
07:37 30.1033 -82.5614 359° North 419 482 31,000  Climbing Jacksonville Center
07:38 30.2203 -82.5608 360° North 419 482 31,000  Level Jacksonville Center
07:39 30.3369 -82.5581 North 419 482 31,000  Level Jacksonville Center
07:40 30.4519 -82.5528 North 419 482 31,000  Level Jacksonville Center
07:41 30.5686 -82.4992 22° Northeast 424 488 31,000 -60 Level Jacksonville Center
07:42 30.6750 -82.4192 33° Northeast 439 505 30,900  Descending Jacksonville Center
07:43 30.7853 -82.3364 33° Northeast 447 514 31,000  Climbing Jacksonville Center
07:44 30.8956 -82.2533 33° Northeast 462 532 31,000  Level Jacksonville Center
07:45 31.0017 -82.1753 32° Northeast 462 532 31,000  Level Jacksonville Center
07:46 31.1097 -82.0967 32° Northeast 457 526 31,000 -60 Level Jacksonville Center
07:47 31.2178 -82.0133 33° Northeast 457 526 30,900 -60 Descending Jacksonville Center
07:48 31.3236 -81.9344 32° Northeast 457 526 30,900  Level Jacksonville Center
07:49 31.4378 -81.8481 33° Northeast 447 514 31,000  Climbing Jacksonville Center
07:50 31.5353 -81.7739 33° Northeast 452 520 31,000  Level Jacksonville Center
07:51 31.6533 -81.6869 32° Northeast 452 520 31,000  Level Jacksonville Center
07:52 31.7611 -81.6025 34° Northeast 452 520 31,000  Level Jacksonville Center
07:53 31.8586 -81.5300 32° Northeast 452 520 31,000  Level Jacksonville Center
07:54 31.9767 -81.4378 34° Northeast 452 520 31,000 -60 Level Jacksonville Center
07:55 32.0861 -81.3550 33° Northeast 457 526 30,900 -60 Descending Jacksonville Center
07:56 32.1939 -81.2722 33° Northeast 457 526 30,900  Level Jacksonville Center
07:57 32.3014 -81.1917 32° Northeast 457 526 31,000  Climbing Jacksonville Center
07:58 32.4086 -81.1061 34° Northeast 452 520 31,000  Level Jacksonville Center
07:59 32.5161 -81.0228 33° Northeast 459 528 31,000 -60 Level Jacksonville Center
08:00 32.6233 -80.9414 33° Northeast 454 522 30,900  Descending Jacksonville Center
08:01 32.7306 -80.8578 33° Northeast 454 522 31,000  Climbing Jacksonville Center
08:02 32.8356 -80.7739 34° Northeast 454 522 30,900 -60 Descending Jacksonville Center
08:03 32.9428 -80.6919 33° Northeast 454 522 30,900  Level Jacksonville Center
08:04 33.0456 -80.6103 34° Northeast 448 516 30,900  Level Jacksonville Center
08:05 33.1506 -80.5281 33° Northeast 448 516 31,000  Climbing Jacksonville Center
08:06 33.2556 -80.4458 33° Northeast 448 516 30,900  Descending Jacksonville Center
08:07 33.3561 -80.3661 34° Northeast 448 516 31,000  Climbing Jacksonville Center
08:08 33.4567 -80.2836 34° Northeast 448 516 30,900  Descending Jacksonville Center
08:09 33.5614 -80.2033 33° Northeast 442 509 31,000  Climbing Jacksonville Center
08:10 33.6619 -80.1228 34° Northeast 436 502 30,900  Descending Jacksonville Center
08:11 33.7644 -80.0397 34° Northeast 436 502 31,000  Climbing Jacksonville Center
08:12 33.8669 -79.9586 33° Northeast 436 502 30,900  Descending Jacksonville Center
08:13 33.9650 -79.8728 36° Northeast 436 502 31,000  Climbing Jacksonville Center
08:14 34.0675 -79.7917 33° Northeast 436 502 31,000  Level Jacksonville Center
08:15 34.1575 -79.7206 33° Northeast 436 502 31,000  Level Jacksonville Center
08:16 34.2661 -79.6389 32° Northeast 424 488 31,000  Level Jacksonville Center
08:18 34.4167 -79.5619 23° Northeast 417 480 31,000  Level Washington Center
08:19 34.5231 -79.5067 23° Northeast 412 474 31,000  Level Washington Center
08:20 34.6311 -79.4511 23° Northeast 412 474 31,000  Level Washington Center
08:20 34.7394 -79.3906 25° Northeast 412 474 31,000  Level Washington Center
08:22 34.8456 -79.3375 22° Northeast 412 474 31,000  Level Washington Center
08:23 34.9517 -79.2814 23° Northeast 412 474 31,000  Level Washington Center
08:23 35.0575 -79.2256 23° Northeast 412 474 31,000  Level Washington Center
08:25 35.1636 -79.1692 23° Northeast 407 468 31,000  Level Washington Center
08:26 35.2733 -79.1308 16° North 402 463 31,000  Level Washington Center
08:27 35.3725 -79.0969 16° North 402 463 31,000  Level Washington Center
08:28 35.4925 -79.0589 14° North 402 463 31,000  Level Washington Center
08:28 35.6019 -79.0203 16° North 402 463 31,000  Level Washington Center
08:29 35.7117 -78.9814 16° North 402 463 31,000  Level Washington Center
08:31 35.8192 -78.9450 15° North 402 463 31,000  Level Washington Center
08:32 35.9244 -78.9086 16° North 402 463 31,000  Level Washington Center
08:32 36.0319 -78.8694 16° North 402 463 31,000  Level Washington Center
08:34 36.1372 -78.8325 16° North 402 463 31,000  Level Washington Center
08:35 36.2447 -78.7958 15° North 402 463 31,000  Level Washington Center
08:35 36.3289 -78.7683 15° North 402 463 31,000  Level Washington Center
08:36 36.4406 -78.7289 16° North 396 456 31,000  Level Washington Center
08:38 36.5394 -78.6889 18° North 385 443 31,000  Level Washington Center
08:39 36.6447 -78.6519 16° North 385 443 31,000  Level Washington Center
08:39 36.7481 -78.6144 16° North 385 443 31,000  Level Washington Center
08:41 36.8556 -78.5744 17° North 385 443 31,000  Level Washington Center
08:42 36.9606 -78.5369 16° North 385 443 31,000  Level Washington Center
08:43 37.0681 -78.4994 16° North 385 443 31,000  Level Washington Center
08:44 37.1839 -78.4492 19° North 390 449 31,000  Level Washington Center
08:44 37.2897 -78.3850 26° Northeast 401 461 31,000  Level Washington Center
08:45 37.3956 -78.3236 25° Northeast 401 461 31,000 -60 Level Washington Center
08:47 37.5033 -78.2619 24° Northeast 408 470 30,900  Descending Washington Center
08:48 37.5983 -78.2025 26° Northeast 408 470 31,000  Climbing Washington Center
08:48 37.7125 -78.1328 26° Northeast 413 475 31,000  Level Washington Center
08:50 37.8161 -78.0681 26° Northeast 413 475 31,000  Level Washington Center
08:51 37.9217 -78.0031 26° Northeast 413 475 31,000  Level Washington Center
08:52 38.0292 -77.9433 24° Northeast 413 475 31,000  Level Washington Center
08:53 38.1347 -77.8778 26° Northeast 413 475 31,000  Level Washington Center
08:54 38.2403 -77.8122 26° Northeast 413 475 31,000  Level Washington Center
08:55 38.3458 -77.7467 26° Northeast 413 475 31,000  Level Washington Center
08:55 38.4511 -77.6833 25° Northeast 413 475 31,000  Level Washington Center
08:57 38.5564 -77.6200 25° Northeast 413 475 31,000  Level Washington Center
08:58 38.6619 -77.5539 26° Northeast 408 470 31,000  Level Washington Center
08:58 38.7692 -77.4875 26° Northeast 414 476 31,000  Level Washington Center
09:00 38.8744 -77.4208 26° Northeast 414 476 31,000  Level Washington Center
09:01 39.0628 -77.3042 26° Northeast 417 480 31,000  Level New York Center
09:02 39.1708 -77.2364 26° Northeast 422 486 31,000  Level New York Center
09:03 39.2789 -77.1683 26° Northeast 422 486 31,000  Level New York Center
09:04 39.3869 -77.1000 26° Northeast 422 486 31,000  Level New York Center
09:05 39.4969 -77.0292 26° Northeast 429 494 31,000  Level New York Center
09:06 39.6069 -76.9608 26° Northeast 429 494 31,000  Level New York Center
09:07 39.7172 -76.8867 27° Northeast 434 499 31,000  Level New York Center
09:08 39.8269 -76.8206 25° Northeast 434 499 31,000  Level New York Center
09:09 39.9369 -76.7489 27° Northeast 434 499 31,000  Level New York Center
09:10 40.0472 -76.6742 27° Northeast 439 505 31,000  Level New York Center
09:11 40.1550 -76.6019 27° Northeast 439 505 31,000  Level New York Center
09:12 40.2625 -76.5319 26° Northeast 439 505 31,000  Level New York Center
09:13 40.3725 -76.4594 27° Northeast 434 499 31,000  Level New York Center
09:14 40.4800 -76.3892 26° Northeast 439 505 31,000  Level New York Center
09:15 40.5897 -76.3161 27° Northeast 439 505 31,000  Level New York Center
09:16 40.7014 -76.2458 26° Northeast 439 505 31,000  Level New York Center
09:17 40.8111 -76.1694 28° Northeast 439 505 31,000  Level New York Center
09:18 40.9186 -76.0983 27° Northeast 439 505 31,000  Level New York Center
09:19 41.0258 -76.0272 27° Northeast 434 499 31,000  Level New York Center
09:20 41.1375 -75.9531 27° Northeast 434 499 31,000  Level New York Center
09:21 41.2364 -75.8861 27° Northeast 434 499 31,000  Level New York Center
09:22 41.3544 -75.8039 28° Northeast 434 499 31,000  Level New York Center
09:23 41.4658 -75.7319 26° Northeast 439 505 31,000  Level New York Center
09:24 41.5839 -75.6464 28° Northeast 445 512 31,000  Level New York Center
09:27 41.8236 -75.4817 27° Northeast 442 509 31,000  Level Boston Center
09:28 41.9350 -75.4047 27° Northeast 448 516 31,000  Level Boston Center
09:29 42.0436 -75.3258 28° Northeast 448 516 31,000  Level Boston Center
09:30 42.1539 -75.2406 30° Northeast 453 521 31,000  Level Boston Center
09:31 42.2750 -75.1419 31° Northeast 456 525 31,000  Level Boston Center
09:32 42.3797 -75.0589 30° Northeast 463 533 31,000  Level Boston Center
09:33 42.4892 -74.9703 31° Northeast 463 533 31,000  Level Boston Center
09:34 42.6003 -74.8792 31° Northeast 466 536 31,000  Level Boston Center
09:35 42.7333 -74.7697 31° Northeast 467 537 31,000 -480 Level Boston Center
09:36 42.8453 -74.6789 31° Northeast 468 539 30,100 -840 Descending Boston Center
09:37 42.9600 -74.5850 31° Northeast 478 550 29,400 -780 Descending Boston Center
09:38 43.0756 -74.4883 31° Northeast 487 560 28,600 -1,200 Descending Boston Center
09:39 43.1872 -74.3947 31° Northeast 479 551 27,000 -1,860 Descending Boston Center
09:40 43.2994 -74.3019 31° Northeast 478 550 24,900 -1,920 Descending Boston Center
09:41 43.4086 -74.2106 31° Northeast 468 539 23,300 -1,560 Descending Boston Center
09:42 43.5122 -74.1231 31° Northeast 447 514 21,800 -1,920 Descending Boston Center
09:43 43.6272 -74.0244 32° Northeast 431 496 19,400 -2,220 Descending Boston Center
09:44 43.7139 -73.9594 28° Northeast 426 490 17,400 -1,920 Descending Boston Center
09:45 43.8197 -73.9133 17° North 407 468 15,500 -1,860 Descending Boston Center
09:46 43.9122 -73.8719 18° North 363 418 13,700 -2,280 Descending Boston Center
09:47 44.0131 -73.8256 18° North 321 369 11,000 -1,680 Descending Boston Center
09:48 44.0947 -73.7819 21° North 315 362 10,300 -720 Descending Boston Center
09:49 44.1661 -73.7331 26° Northeast 290 334 9,600 -780 Descending Boston Center
09:50 44.2294 -73.6672 37° Northeast 266 306 8,800 -1,140 Descending Boston Center
09:51 44.2806 -73.6003 43° Northeast 263 303 7,400 -1,620 Descending Boston Center
09:52 44.3272 -73.5342 45° Northeast 247 284 5,600 -1,500 Descending Boston Center
09:53 44.3694 -73.4625 50° Northeast 245 282 4,300 -1,080 Descending Boston Center
09:54 44.4128 -73.3967 47° Northeast 210 242 3,400 -480 Descending Boston Center
09:55 44.4592 -73.3769 17° North 179 206 3,400 -300 Level Boston Center
09:56 44.4994 -73.3831 354° North 169 194 2,900 -720 Descending Boston Center
09:57 44.5419 -73.4047 340° North 162 186 2,000 -840 Descending Boston Center
09:58 44.5811 -73.4281 337° Northwest 150 173 1,300 -780 Descending Boston Center
09:59 44.6164 -73.4489 337° Northwest 141 162 500 -840 Descending Boston Center
10:01 44.6500 -73.4667 133° Southeast  Level FlightAware Approximate
10:08 44.6509 -73.4681 133° Southeast  Level Estimated
10:09 44.6500 -73.4667 133° Southeast  Level FlightAware Approximate
10:10 44.6509 -73.4681 133° Southeast  Level Estimated
10:11 44.6500 -73.4667 133° Southeast  Level FlightAware Approximate
10:12 44.6509 -73.4681 133° Southeast  Level Estimated
10:13 44.6500 -73.4667 133° Southeast  Level FlightAware Approximate
10:14 44.6509 -73.4681 133° Southeast  Level Estimated
10:15 44.6500 -73.4667 133° Southeast  Level FlightAware Approximate
10:16 44.6509 -73.4681 133° Southeast  Level Estimated